Time;durP1;ratioP1;P1;durP2;ratioP2;P2;SDS_P1;SDS_P2;PMS_P1;PMS_P2;Temp;Humidity;BMP_temperature;BMP_pressure;BME280_temperature;BME280_humidity;BME280_pressure;Samples;Min_cycle;Max_cycle;Signal;HPM_P1;HPM_P2
2022/06/13 00:01:36;;;;;;;4.43;0.65;;;23.20;59.30;;;;;;5012900;28;20080;-96
2022/06/13 00:04:04;;;;;;;4.65;0.75;;;23.10;59.40;;;;;;5003253;28;20033;-92
2022/06/13 00:06:29;;;;;;;2.78;0.60;;;23.10;59.30;;;;;;5030547;28;20026;-94
2022/06/13 00:08:55;;;;;;;5.82;1.00;;;23.00;59.20;;;;;;5015228;28;20041;-88
2022/06/13 00:11:24;;;;;;;5.30;0.80;;;22.90;59.30;;;;;;5015605;28;20201;-87
2022/06/13 00:13:52;;;;;;;6.25;0.90;;;22.90;59.40;;;;;;5033038;28;20080;-88
2022/06/13 00:16:18;;;;;;;2.58;0.75;;;22.80;59.30;;;;;;5012598;28;20092;-89
2022/06/13 00:18:48;;;;;;;2.25;0.70;;;22.80;59.30;;;;;;5011820;28;20076;-95
2022/06/13 00:21:18;;;;;;;1.67;0.60;;;22.80;59.60;;;;;;5000746;28;20105;-88
2022/06/13 00:23:43;;;;;;;4.30;0.80;;;22.70;59.40;;;;;;5013954;28;20460;-94
2022/06/13 00:26:10;;;;;;;0.95;0.70;;;22.70;60.10;;;;;;5001256;28;20030;-87
2022/06/13 00:28:35;;;;;;;6.25;0.80;;;22.70;59.80;;;;;;4995022;28;20105;-89
2022/06/13 00:31:01;;;;;;;9.23;0.93;;;22.70;60.10;;;;;;4994089;28;20523;-90
2022/06/13 00:33:26;;;;;;;2.55;0.80;;;22.70;61.40;;;;;;4993504;28;20069;-86
2022/06/13 00:35:52;;;;;;;3.25;0.60;;;22.60;60.70;;;;;;5004528;28;20036;-89
2022/06/13 00:38:18;;;;;;;2.92;0.70;;;22.60;60.30;;;;;;5012815;28;20034;-85
2022/06/13 00:40:44;;;;;;;3.63;0.85;;;22.50;60.30;;;;;;5013433;28;20460;-86
2022/06/13 00:43:15;;;;;;;5.25;1.42;;;22.50;60.60;;;;;;5013214;28;20137;-86
2022/06/13 00:45:41;;;;;;;3.47;0.82;;;22.40;60.70;;;;;;5013292;28;20101;-88
2022/06/13 00:48:15;;;;;;;4.18;0.90;;;22.20;60.90;;;;;;5012787;28;20133;-87
2022/06/13 00:50:51;;;;;;;3.45;0.90;;;22.20;61.30;;;;;;5013676;28;20383;-87
2022/06/13 00:53:22;;;;;;;2.70;0.82;;;22.20;61.00;;;;;;5013586;28;20034;-87
2022/06/13 00:56:02;;;;;;;4.40;0.98;;;22.00;61.00;;;;;;5014349;28;20029;-88
2022/06/13 00:58:33;;;;;;;3.55;0.73;;;22.00;61.50;;;;;;5011963;28;20030;-88
2022/06/13 01:00:59;;;;;;;4.72;1.00;;;21.90;61.60;;;;;;5013452;28;20374;-89
2022/06/13 01:03:28;;;;;;;4.03;1.45;;;22.00;61.80;;;;;;5014069;28;20114;-88
2022/06/13 01:05:56;;;;;;;3.28;0.93;;;22.00;61.90;;;;;;5014473;28;20026;-89
2022/06/13 01:08:25;;;;;;;3.55;0.82;;;22.00;62.60;;;;;;5013091;28;20066;-88
2022/06/13 01:13:40;;;;;;;6.68;1.23;;;21.90;62.30;;;;;;5014246;28;20553;-87
2022/06/13 01:16:48;;;;;;;6.15;0.90;;;21.90;61.80;;;;;;5012608;28;20038;-87
2022/06/13 01:19:51;;;;;;;4.03;0.95;;;22.00;63.20;;;;;;5012830;28;20513;-87
2022/06/13 01:22:40;;;;;;;2.75;0.73;;;22.00;63.50;;;;;;5014070;28;20034;-86
2022/06/13 01:25:43;;;;;;;2.83;0.70;;;22.00;63.30;;;;;;4967941;28;20033;-91
2022/06/13 01:28:41;;;;;;;4.68;0.68;;;21.90;62.90;;;;;;5012509;28;20053;-87
2022/06/13 01:31:10;;;;;;;6.47;1.20;;;21.90;62.90;;;;;;4963423;28;20037;-88
2022/06/13 01:33:51;;;;;;;3.88;0.98;;;21.80;62.30;;;;;;5012927;28;20026;-87
2022/06/13 01:36:43;;;;;;;3.25;0.93;;;21.90;62.40;;;;;;5012548;28;20026;-87
2022/06/13 01:39:22;;;;;;;4.00;1.00;;;21.80;62.20;;;;;;5013665;28;20105;-89
2022/06/13 01:42:26;;;;;;;2.35;1.00;;;21.80;62.40;;;;;;5013684;28;20480;-88
2022/06/13 01:45:13;;;;;;;3.90;1.02;;;21.70;62.40;;;;;;4973995;28;20438;-87
2022/06/13 01:47:59;;;;;;;4.55;1.10;;;21.70;62.40;;;;;;5021515;28;20542;-87
2022/06/13 01:50:33;;;;;;;3.92;1.00;;;21.60;63.10;;;;;;5015077;28;20026;-87
2022/06/13 01:53:07;;;;;;;4.35;1.17;;;21.60;62.80;;;;;;5014755;28;20030;-88
2022/06/13 01:55:52;;;;;;;3.53;0.90;;;21.60;62.70;;;;;;5013235;28;20026;-88
2022/06/13 01:58:45;;;;;;;4.38;1.30;;;21.50;62.30;;;;;;5012685;28;20107;-88
2022/06/13 02:01:22;;;;;;;2.58;0.80;;;21.50;62.20;;;;;;5025196;28;20049;-88
2022/06/13 02:03:53;;;;;;;3.97;1.00;;;21.40;62.30;;;;;;5023966;28;20025;-88
2022/06/13 02:06:24;;;;;;;3.53;1.10;;;21.40;62.60;;;;;;5022237;28;20022;-88
2022/06/13 02:08:56;;;;;;;4.07;0.90;;;21.30;62.50;;;;;;5026943;28;20049;-88
2022/06/13 02:11:49;;;;;;;4.32;1.00;;;21.30;62.50;;;;;;5015765;28;20033;-87
2022/06/13 02:14:34;;;;;;;6.53;1.10;;;21.30;62.50;;;;;;5016399;28;20479;-90
2022/06/13 02:17:22;;;;;;;4.40;1.00;;;21.20;62.90;;;;;;5016803;28;20443;-90
2022/06/13 02:20:05;;;;;;;3.03;0.80;;;21.10;62.70;;;;;;5016798;28;20037;-90
2022/06/13 02:22:46;;;;;;;2.92;0.90;;;21.10;63.00;;;;;;5016182;28;20034;-90
2022/06/13 02:25:31;;;;;;;;;;;21.10;63.10;;;;;;5017583;28;20060;-89
2022/06/13 02:28:01;;;;;;;3.47;1.10;;;21.00;63.50;;;;;;5016216;28;19905;-90
2022/06/13 02:30:33;;;;;;;4.40;1.00;;;21.00;63.60;;;;;;5015922;28;20112;-90
2022/06/13 02:33:09;;;;;;;6.60;1.00;;;21.00;64.30;;;;;;5016198;28;20025;-89
2022/06/13 02:35:40;;;;;;;4.80;0.98;;;21.00;64.20;;;;;;5016104;28;20463;-87
2022/06/13 02:38:25;;;;;;;2.38;0.75;;;21.00;64.20;;;;;;5016401;28;20049;-86
2022/06/13 02:41:07;;;;;;;7.40;1.02;;;20.80;64.40;;;;;;5016211;28;20030;-88
2022/06/13 02:43:42;;;;;;;6.07;1.02;;;20.80;65.50;;;;;;5015785;28;20044;-90
2022/06/13 02:46:20;;;;;;;3.25;0.98;;;20.80;66.30;;;;;;5015419;28;20037;-90
2022/06/13 02:48:55;;;;;;;5.28;1.10;;;20.70;66.60;;;;;;5015942;28;20112;-90
2022/06/13 02:51:43;;;;;;;3.90;0.88;;;20.60;66.50;;;;;;5015635;28;20464;-91
2022/06/13 02:54:11;;;;;;;3.10;1.10;;;20.60;67.00;;;;;;5015645;28;20040;-90
2022/06/13 02:56:36;;;;;;;5.13;1.08;;;20.50;67.10;;;;;;5015400;28;20525;-90
2022/06/13 02:59:16;;;;;;;2.63;0.85;;;20.40;67.40;;;;;;5015647;28;20030;-90
2022/06/13 03:01:45;;;;;;;4.38;1.05;;;20.30;68.30;;;;;;5015793;28;20057;-90
2022/06/13 03:04:26;;;;;;;4.50;0.93;;;20.20;68.70;;;;;;5015385;28;20033;-90
2022/06/13 03:07:11;;;;;;;3.53;0.70;;;20.20;70.70;;;;;;5016301;28;20030;-90
2022/06/13 03:09:45;;;;;;;4.93;1.30;;;20.10;69.30;;;;;;5032009;28;20030;-90
2022/06/13 03:12:28;;;;;;;7.22;0.93;;;20.10;68.50;;;;;;5015494;28;20026;-90
2022/06/13 03:14:56;;;;;;;4.80;1.00;;;20.10;69.10;;;;;;5015811;28;20049;-90
2022/06/13 03:17:32;;;;;;;6.22;1.67;;;20.00;69.80;;;;;;5015508;28;20037;-90
2022/06/13 03:20:08;;;;;;;5.47;1.17;;;20.00;70.40;;;;;;5015666;28;20061;-90
2022/06/13 03:22:49;;;;;;;2.00;0.75;;;19.90;71.80;;;;;;5013958;28;20042;-89
2022/06/13 03:25:28;;;;;;;2.67;1.00;;;19.80;71.80;;;;;;5016197;28;20026;-89
2022/06/13 03:28:21;;;;;;;3.97;1.15;;;19.70;71.70;;;;;;5032237;28;20034;-90
2022/06/13 03:30:56;;;;;;;6.03;1.08;;;19.70;72.20;;;;;;5014973;28;20058;-90
2022/06/13 03:33:42;;;;;;;2.70;1.20;;;19.70;71.10;;;;;;5014632;28;20030;-90
2022/06/13 03:36:36;;;;;;;4.68;1.10;;;19.70;71.10;;;;;;5031827;28;20026;-90
2022/06/13 03:39:14;;;;;;;3.72;1.20;;;19.70;71.20;;;;;;5010707;28;20129;-90
2022/06/13 03:41:48;;;;;;;3.67;1.10;;;19.70;70.70;;;;;;5015100;28;20506;-89
2022/06/13 03:44:21;;;;;;;2.70;1.05;;;19.70;71.10;;;;;;5014811;28;20356;-90
2022/06/13 03:46:57;;;;;;;2.33;0.82;;;19.70;70.90;;;;;;5015630;28;20054;-88
2022/06/13 03:49:37;;;;;;;3.05;1.00;;;19.70;71.20;;;;;;5013562;28;20057;-89
2022/06/13 03:52:07;;;;;;;4.75;1.33;;;19.70;71.10;;;;;;5014678;28;20061;-89
2022/06/13 03:54:46;;;;;;;5.18;1.10;;;19.70;71.90;;;;;;5013484;28;20022;-88
2022/06/13 03:57:21;;;;;;;3.55;1.00;;;19.70;72.20;;;;;;5030551;28;20033;-88
2022/06/13 04:00:08;;;;;;;4.43;1.13;;;19.60;72.10;;;;;;5014229;28;20117;-88
2022/06/13 04:02:36;;;;;;;5.38;1.40;;;19.50;72.70;;;;;;5014843;28;20029;-88
2022/06/13 04:05:01;;;;;;;4.90;1.30;;;19.50;73.20;;;;;;5014600;28;20021;-88
2022/06/13 04:07:32;;;;;;;8.13;2.00;;;19.40;73.80;;;;;;5013968;28;20108;-88
2022/06/13 04:10:06;;;;;;;4.88;1.20;;;19.40;74.20;;;;;;5014419;28;20026;-88
2022/06/13 04:13:13;;;;;;;5.78;1.27;;;19.40;74.20;;;;;;5013736;28;20064;-88
2022/06/13 04:15:59;;;;;;;3.78;1.23;;;19.40;74.60;;;;;;4944342;28;20077;-88
2022/06/13 04:18:44;;;;;;;5.13;1.73;;;19.30;74.20;;;;;;5013629;28;20032;-89
2022/06/13 04:21:21;;;;;;;4.70;1.42;;;19.30;74.10;;;;;;5014234;28;20037;-89
2022/06/13 04:24:14;;;;;;;7.35;1.98;;;19.30;73.70;;;;;;5014409;28;20030;-88
2022/06/13 04:26:57;;;;;;;5.90;1.45;;;19.40;73.60;;;;;;5015126;28;20105;-88
2022/06/13 04:29:34;;;;;;;7.68;0.98;;;19.40;73.40;;;;;;5013830;28;20026;-89
2022/06/13 04:32:05;;;;;;;3.42;1.10;;;19.40;73.50;;;;;;5013815;28;20045;-87
2022/06/13 04:34:38;;;;;;;3.15;1.00;;;19.40;73.50;;;;;;5013082;28;20053;-88
2022/06/13 04:37:05;;;;;;;3.83;1.30;;;19.40;73.70;;;;;;5013524;28;20036;-87
2022/06/13 04:39:35;;;;;;;3.25;1.27;;;19.40;73.80;;;;;;5012773;28;20096;-87
2022/06/13 04:42:02;;;;;;;2.70;1.10;;;19.40;73.40;;;;;;5029804;28;20125;-87
2022/06/13 04:44:30;;;;;;;6.55;1.10;;;19.30;73.40;;;;;;5012710;28;20124;-88
2022/06/13 04:46:57;;;;;;;4.95;1.42;;;19.40;73.70;;;;;;5013934;28;20054;-88
2022/06/13 04:49:25;;;;;;;5.28;1.10;;;19.40;73.80;;;;;;5011876;28;20029;-88
2022/06/13 04:51:54;;;;;;;4.78;1.40;;;19.30;73.70;;;;;;5013690;28;20459;-86
2022/06/13 04:54:42;;;;;;;4.93;1.20;;;19.30;73.90;;;;;;5012175;28;20026;-91
2022/06/13 04:57:13;;;;;;;4.15;1.10;;;19.30;73.80;;;;;;5013694;28;20026;-89
2022/06/13 04:59:41;;;;;;;5.30;1.20;;;19.30;73.70;;;;;;5012518;28;20034;-91
2022/06/13 05:02:17;;;;;;;6.22;1.30;;;19.30;73.90;;;;;;5012445;28;20041;-90
2022/06/13 05:04:43;;;;;;;4.22;1.00;;;19.30;74.20;;;;;;5013469;28;20109;-87
2022/06/13 05:07:15;;;;;;;4.68;1.05;;;19.30;73.80;;;;;;5012103;28;20433;-87
2022/06/13 05:09:51;;;;;;;;;;;19.40;74.20;;;;;;5012175;28;20026;-87
2022/06/13 05:12:38;;;;;;;5.30;1.33;;;19.50;74.00;;;;;;5012233;28;19906;-87
2022/06/13 05:15:15;;;;;;;3.90;1.20;;;19.50;73.60;;;;;;5012071;28;20037;-87
2022/06/13 05:18:07;;;;;;;4.97;1.40;;;19.60;73.80;;;;;;5011639;28;20038;-87
2022/06/13 05:20:33;;;;;;;7.05;1.67;;;19.60;73.90;;;;;;5012054;28;20030;-87
2022/06/13 05:23:13;;;;;;;4.78;1.13;;;19.60;73.50;;;;;;5012266;28;20034;-87
2022/06/13 05:25:46;;;;;;;5.32;1.27;;;19.60;73.30;;;;;;5012070;28;20050;-87
2022/06/13 05:28:15;;;;;;;4.90;1.05;;;19.60;74.20;;;;;;5012557;28;20030;-87
2022/06/13 05:30:43;;;;;;;3.85;1.25;;;19.60;74.10;;;;;;5012831;28;20053;-87
2022/06/13 05:33:13;;;;;;;3.78;1.20;;;19.60;73.80;;;;;;5013418;28;20026;-87
2022/06/13 05:35:43;;;;;;;3.40;1.60;;;19.60;74.00;;;;;;5028125;28;20057;-87
2022/06/13 05:38:30;;;;;;;6.45;1.23;;;19.60;73.60;;;;;;5013432;28;20029;-87
2022/06/13 05:40:56;;;;;;;3.00;0.98;;;19.60;73.60;;;;;;5013407;28;20030;-87
2022/06/13 05:43:22;;;;;;;2.25;1.10;;;19.70;74.00;;;;;;5012491;28;20479;-87
2022/06/13 05:45:47;;;;;;;5.57;1.20;;;19.70;73.40;;;;;;5014106;28;20042;-87
2022/06/13 05:48:15;;;;;;;4.32;1.20;;;19.70;73.40;;;;;;4995672;28;1073594;-87
2022/06/13 05:50:42;;;;;;;5.32;1.23;;;19.70;73.10;;;;;;5016496;28;20072;-87
2022/06/13 05:53:13;;;;;;;4.18;1.48;;;19.70;73.40;;;;;;5017679;28;20426;-84
2022/06/13 05:55:39;;;;;;;8.45;2.15;;;19.70;73.80;;;;;;5017114;28;20030;-84
2022/06/13 05:58:05;;;;;;;3.20;1.17;;;19.80;73.80;;;;;;5017630;28;20096;-84
2022/06/13 06:00:36;;;;;;;3.50;1.10;;;19.90;73.90;;;;;;5016379;28;20030;-84
2022/06/13 06:03:01;;;;;;;3.97;1.20;;;19.90;73.80;;;;;;5016605;28;20045;-84
2022/06/13 06:05:27;;;;;;;6.32;1.52;;;19.90;73.40;;;;;;5016841;28;20396;-84
2022/06/13 06:07:53;;;;;;;2.75;1.17;;;19.90;73.40;;;;;;5016262;28;20168;-84
2022/06/13 06:10:30;;;;;;;5.60;1.48;;;19.90;73.10;;;;;;5016299;28;20030;-84
2022/06/13 06:12:55;;;;;;;5.75;0.95;;;19.70;73.30;;;;;;5016188;28;20057;-84
2022/06/13 06:15:22;;;;;;;6.85;1.40;;;19.80;74.10;;;;;;5015925;28;20113;-89
2022/06/13 06:17:47;;;;;;;3.65;1.27;;;19.80;73.60;;;;;;5016167;28;20081;-84
2022/06/13 06:20:18;;;;;;;4.93;1.10;;;19.80;73.70;;;;;;5017155;28;20061;-84
2022/06/13 06:22:44;;;;;;;5.25;1.27;;;19.70;73.70;;;;;;5016353;28;20333;-87
2022/06/13 06:25:10;;;;;;;5.78;1.30;;;19.60;74.00;;;;;;5016221;28;20030;-88
2022/06/13 06:27:35;;;;;;;4.90;1.20;;;19.60;74.30;;;;;;5015531;28;20025;-87
2022/06/13 06:30:03;;;;;;;2.50;0.93;;;19.60;74.40;;;;;;5015867;28;20144;-87
2022/06/13 06:32:29;;;;;;;6.80;1.50;;;19.60;74.30;;;;;;5015457;28;20125;-87
2022/06/13 06:34:54;;;;;;;4.53;1.20;;;19.50;74.00;;;;;;5015714;28;20108;-87
2022/06/13 06:37:20;;;;;;;4.05;1.10;;;19.50;74.00;;;;;;5015756;28;20030;-86
2022/06/13 06:39:47;;;;;;;5.35;1.55;;;19.50;74.30;;;;;;5015479;28;20479;-87
2022/06/13 06:42:12;;;;;;;5.75;1.10;;;19.50;74.00;;;;;;5032316;28;20040;-87
2022/06/13 06:44:38;;;;;;;6.03;1.33;;;19.50;75.00;;;;;;5015331;28;20112;-87
2022/06/13 06:47:06;;;;;;;3.45;1.30;;;19.60;74.60;;;;;;5015025;28;20045;-86
2022/06/13 06:49:34;;;;;;;3.85;1.58;;;19.50;74.10;;;;;;5017026;28;20471;-87
2022/06/13 06:52:01;;;;;;;6.15;1.27;;;19.50;74.00;;;;;;5016476;28;20125;-86
2022/06/13 06:59:56;;;;;;;3.42;1.10;;;19.60;71.60;;;;;;5016923;28;20032;-88
2022/06/13 07:02:27;;;;;;;5.38;1.23;;;19.50;71.40;;;;;;5015282;28;20481;-88
2022/06/13 07:05:04;;;;;;;;;;;19.50;71.10;;;;;;5016772;28;20022;-87
2022/06/13 07:07:30;;;;;;;6.57;1.20;;;19.50;71.40;;;;;;5014541;28;20358;-87
2022/06/13 07:09:56;;;;;;;3.17;1.30;;;19.50;71.40;;;;;;5015015;28;20065;-87
2022/06/13 07:12:22;;;;;;;4.82;1.20;;;19.50;71.00;;;;;;5014959;28;20072;-88
2022/06/13 07:14:48;;;;;;;4.45;1.00;;;19.50;71.80;;;;;;5014718;28;20037;-88
2022/06/13 07:17:14;;;;;;;5.40;1.65;;;19.60;71.10;;;;;;5031806;28;20030;-88
2022/06/13 07:19:44;;;;;;;2.42;0.90;;;19.60;71.00;;;;;;5014609;28;20034;-89
2022/06/13 07:22:13;;;;;;;4.93;1.10;;;19.70;70.80;;;;;;5015143;28;20038;-88
2022/06/13 07:24:38;;;;;;;3.95;1.20;;;19.70;70.80;;;;;;5014567;28;20037;-89
2022/06/13 07:27:04;;;;;;;4.18;0.90;;;19.80;71.50;;;;;;5014917;28;20030;-88
2022/06/13 07:29:30;;;;;;;4.95;1.05;;;19.80;70.50;;;;;;5031071;28;20021;-89
2022/06/13 07:32:04;;;;;;;5.80;1.30;;;19.70;70.00;;;;;;5014835;28;20125;-89
2022/06/13 07:34:32;;;;;;;2.65;1.23;;;19.70;70.00;;;;;;5014471;28;20030;-89
2022/06/13 07:37:00;;;;;;;4.38;1.10;;;19.80;70.20;;;;;;5015065;28;20048;-88
2022/06/13 07:39:25;;;;;;;5.20;1.27;;;19.80;70.20;;;;;;5015512;28;20463;-89
2022/06/13 07:41:52;;;;;;;7.10;1.30;;;19.80;70.00;;;;;;5014132;28;20030;-89
2022/06/13 07:44:24;;;;;;;2.80;0.95;;;19.80;70.50;;;;;;5015447;28;20050;-90
2022/06/13 07:46:51;;;;;;;4.65;1.60;;;19.80;70.60;;;;;;5014602;28;20081;-89
2022/06/13 07:49:17;;;;;;;5.10;1.00;;;19.90;70.10;;;;;;5014652;28;20368;-90
2022/06/13 07:51:43;;;;;;;5.90;1.33;;;19.90;69.80;;;;;;5014104;28;20053;-90
2022/06/13 07:54:09;;;;;;;8.88;1.30;;;20.00;69.70;;;;;;5014450;28;20041;-89
2022/06/13 07:56:36;;;;;;;7.82;1.55;;;20.00;69.80;;;;;;5013841;28;20029;-87
2022/06/13 07:59:03;;;;;;;4.93;1.40;;;20.00;70.10;;;;;;5016060;28;20061;-93
2022/06/13 08:01:29;;;;;;;5.22;1.55;;;20.10;70.40;;;;;;5014118;28;20053;-91
2022/06/13 08:03:55;;;;;;;5.38;1.30;;;20.20;70.10;;;;;;5015469;28;20116;-87
2022/06/13 08:06:22;;;;;;;4.93;1.45;;;20.20;69.60;;;;;;5020184;28;20029;-87
2022/06/13 08:08:49;;;;;;;10.45;1.70;;;20.20;69.70;;;;;;5020532;28;20026;-88
2022/06/13 08:11:19;;;;;;;8.60;1.60;;;20.20;69.60;;;;;;5016705;28;20028;-87
2022/06/13 08:13:45;;;;;;;5.03;1.10;;;20.30;70.40;;;;;;5011600;28;20044;-87
2022/06/13 08:16:11;;;;;;;4.65;1.23;;;20.30;70.40;;;;;;5011065;28;20049;-87
2022/06/13 08:18:38;;;;;;;5.30;1.35;;;20.40;70.10;;;;;;5018037;28;20040;-87
2022/06/13 08:21:04;;;;;;;4.47;1.50;;;20.50;70.20;;;;;;5022078;28;20057;-89
2022/06/13 08:23:30;;;;;;;7.18;1.63;;;20.50;69.70;;;;;;5021925;28;20041;-87
2022/06/13 08:25:56;;;;;;;4.90;1.90;;;20.50;69.80;;;;;;5023681;28;20036;-88
2022/06/13 08:28:22;;;;;;;8.20;1.42;;;20.50;69.80;;;;;;5014684;28;20116;-88
2022/06/13 08:30:56;;;;;;;3.15;1.42;;;20.60;70.10;;;;;;5013188;28;20030;-88
2022/06/13 08:33:22;;;;;;;5.93;1.48;;;20.60;69.80;;;;;;5030874;28;20034;-87
2022/06/13 08:35:49;;;;;;;7.38;1.50;;;20.70;69.20;;;;;;5014112;28;20045;-89
2022/06/13 08:38:14;;;;;;;4.40;1.20;;;20.80;69.00;;;;;;5013761;28;20025;-88
2022/06/13 08:40:58;;;;;;;3.47;1.27;;;21.00;68.60;;;;;;5013438;28;20370;-90
2022/06/13 08:43:33;;;;;;;3.42;1.20;;;21.20;68.30;;;;;;5015514;28;20038;-91
2022/06/13 08:46:29;;;;;;;2.47;1.17;;;21.20;68.20;;;;;;5013813;28;20041;-93
2022/06/13 08:49:24;;;;;;;4.28;1.77;;;21.20;67.00;;;;;;5013510;28;20089;-92
2022/06/13 08:51:54;;;;;;;6.07;1.30;;;21.30;67.90;;;;;;5013154;28;20195;-89
2022/06/13 08:54:26;;;;;;;3.08;1.30;;;21.20;67.60;;;;;;5013791;28;20033;-91
2022/06/13 08:56:52;;;;;;;5.80;1.40;;;21.10;67.00;;;;;;5013506;28;20022;-89
2022/06/13 08:59:34;;;;;;;4.63;1.33;;;21.00;66.90;;;;;;5013874;28;20434;-89
2022/06/13 09:02:20;;;;;;;3.80;1.13;;;20.90;67.30;;;;;;5013681;28;20061;-87
2022/06/13 09:05:02;;;;;;;3.72;0.98;;;20.90;65.40;;;;;;5013370;28;20026;-87
2022/06/13 09:07:31;;;;;;;;;;;20.90;64.40;;;;;;5014613;28;20026;-88
2022/06/13 09:10:05;;;;;;;4.07;1.02;;;20.80;64.10;;;;;;5013136;28;19905;-87
2022/06/13 09:12:56;;;;;;;2.97;1.00;;;20.80;64.90;;;;;;4996500;28;20038;-90
2022/06/13 09:15:27;;;;;;;6.05;1.27;;;20.90;65.20;;;;;;5010903;28;20034;-90
2022/06/13 09:18:01;;;;;;;4.95;1.08;;;21.00;65.50;;;;;;4994017;28;20053;-89
2022/06/13 09:20:48;;;;;;;3.55;0.88;;;21.10;64.70;;;;;;4999491;28;20040;-89
2022/06/13 09:23:32;;;;;;;4.88;1.42;;;21.20;64.40;;;;;;5017457;28;20062;-91
2022/06/13 09:26:22;;;;;;;4.15;1.00;;;21.30;64.30;;;;;;5018266;28;20036;-91
2022/06/13 09:29:09;;;;;;;4.63;1.40;;;21.30;63.60;;;;;;5017832;28;20025;-90
2022/06/13 09:31:41;;;;;;;4.05;1.20;;;21.30;64.10;;;;;;5016355;28;20033;-91
2022/06/13 09:34:13;;;;;;;5.63;1.10;;;21.30;64.40;;;;;;5018066;28;20037;-90
2022/06/13 09:36:50;;;;;;;2.85;1.10;;;21.40;62.50;;;;;;5017670;28;20030;-91
2022/06/13 09:39:18;;;;;;;3.88;1.15;;;21.40;61.80;;;;;;5017119;28;20026;-91
2022/06/13 09:41:52;;;;;;;1.75;0.90;;;21.50;62.10;;;;;;5022483;28;20118;-91
2022/06/13 09:44:40;;;;;;;5.72;1.30;;;21.50;63.20;;;;;;5007906;28;20059;-85
2022/06/13 09:47:36;;;;;;;4.57;0.98;;;21.50;64.00;;;;;;5028659;28;20161;-88
2022/06/13 09:50:25;;;;;;;2.40;0.93;;;21.50;61.90;;;;;;5008920;28;20054;-87
2022/06/13 09:53:08;;;;;;;1.63;0.60;;;21.50;59.90;;;;;;4996711;28;20034;-88
2022/06/13 09:56:04;;;;;;;1.58;0.68;;;21.50;55.50;;;;;;5013380;28;20026;-90
2022/06/13 09:58:55;;;;;;;3.20;0.70;;;21.70;57.80;;;;;;5013538;28;20044;-88
2022/06/13 10:02:07;;;;;;;3.30;0.63;;;21.60;57.70;;;;;;4997998;28;20038;-88
2022/06/13 10:04:42;;;;;;;2.10;0.73;;;21.60;58.30;;;;;;4983773;28;20048;-90
2022/06/13 10:07:18;;;;;;;2.72;1.27;;;21.60;58.00;;;;;;5004041;28;20026;-91
2022/06/13 10:10:08;;;;;;;1.88;0.65;;;21.70;54.20;;;;;;5006812;28;20026;-85
2022/06/13 10:12:58;;;;;;;1.80;0.68;;;21.60;53.50;;;;;;5013778;28;20026;-88
2022/06/13 10:15:58;;;;;;;4.22;0.60;;;21.60;53.30;;;;;;5024338;28;20025;-89
2022/06/13 10:18:42;;;;;;;1.92;0.63;;;21.60;52.30;;;;;;4926642;28;20502;-88
2022/06/13 10:21:21;;;;;;;4.82;1.40;;;21.70;52.50;;;;;;5029195;28;20022;-95
2022/06/13 10:24:18;;;;;;;3.03;0.80;;;22.00;51.70;;;;;;5001496;28;20037;-88
2022/06/13 10:27:04;;;;;;;1.45;0.60;;;22.00;51.40;;;;;;5011860;28;20062;-91
2022/06/13 10:29:53;;;;;;;3.05;1.02;;;22.00;52.40;;;;;;4993133;28;20026;-88
2022/06/13 10:32:46;;;;;;;2.60;0.85;;;21.80;54.20;;;;;;5009168;28;20101;-89
2022/06/13 10:35:28;;;;;;;1.40;0.80;;;21.70;54.80;;;;;;5013136;28;20088;-90
2022/06/13 10:38:25;;;;;;;2.55;0.95;;;21.80;54.70;;;;;;5011537;28;20790;-87
2022/06/13 10:40:51;;;;;;;4.85;0.75;;;21.90;55.90;;;;;;5008004;28;20128;-88
2022/06/13 10:43:17;;;;;;;3.00;0.60;;;22.00;53.40;;;;;;5019195;28;20042;-86
2022/06/13 10:45:44;;;;;;;2.65;0.70;;;22.00;53.40;;;;;;5008903;28;20018;-87
2022/06/13 10:48:17;;;;;;;2.65;0.70;;;22.10;53.60;;;;;;5013068;28;20061;-89
2022/06/13 10:50:59;;;;;;;1.48;0.80;;;22.20;54.60;;;;;;5015029;28;20026;-87
2022/06/13 10:53:34;;;;;;;2.92;0.70;;;22.30;53.80;;;;;;5009771;28;20078;-88
2022/06/13 10:56:03;;;;;;;1.60;0.73;;;22.30;52.20;;;;;;5004068;28;20129;-87
2022/06/13 10:58:48;;;;;;;2.70;0.73;;;22.30;52.90;;;;;;5002509;28;20022;-89
2022/06/13 11:01:16;;;;;;;4.13;0.70;;;22.40;53.40;;;;;;5014137;28;20026;-91
2022/06/13 11:04:03;;;;;;;1.10;0.52;;;22.50;53.50;;;;;;5023116;28;20029;-90
2022/06/13 11:06:49;;;;;;;1.27;0.50;;;22.40;53.40;;;;;;5014517;28;20052;-88
2022/06/13 11:09:44;;;;;;;1.05;0.50;;;22.50;53.30;;;;;;5015067;28;20045;-89
2022/06/13 11:12:30;;;;;;;1.27;0.60;;;22.50;52.00;;;;;;5014967;28;20064;-86
2022/06/13 11:23:53;;;;;;;2.85;0.63;;;23.00;50.30;;;;;;4996317;28;20048;-83
2022/06/13 11:29:06;;;;;;;1.80;0.50;;;23.30;50.10;;;;;;5014607;28;20093;-85
2022/06/13 11:31:32;;;;;;;3.65;0.75;;;23.50;49.90;;;;;;5014937;28;20030;-84
2022/06/13 11:34:27;;;;;;;2.60;0.70;;;23.60;49.60;;;;;;5036687;28;20029;-85
2022/06/13 11:37:12;;;;;;;1.55;0.65;;;23.50;50.40;;;;;;5012959;28;20038;-85
2022/06/13 11:39:47;;;;;;;4.10;0.95;;;23.40;51.70;;;;;;5013984;28;20033;-87
2022/06/13 11:42:23;;;;;;;5.25;0.63;;;23.40;51.60;;;;;;5014384;28;20089;-84
2022/06/13 11:45:04;;;;;;;2.05;0.70;;;23.50;51.00;;;;;;5014281;28;20475;-86
2022/06/13 11:47:46;;;;;;;2.35;0.88;;;23.70;51.20;;;;;;5014163;28;20049;-85
2022/06/13 11:50:36;;;;;;;2.40;0.75;;;23.80;51.80;;;;;;5014775;28;20032;-86
2022/06/13 11:55:55;;;;;;;2.40;0.47;;;23.80;51.50;;;;;;5003664;28;20033;-86
2022/06/13 11:58:30;;;;;;;1.80;0.80;;;23.70;51.40;;;;;;5005992;28;20468;-85
2022/06/13 12:01:28;;;;;;;1.40;0.65;;;23.60;51.30;;;;;;5004875;28;20026;-86
2022/06/13 12:04:12;;;;;;;3.00;0.60;;;23.60;50.80;;;;;;4999269;28;20050;-86
2022/06/13 12:06:48;;;;;;;1.40;0.70;;;23.60;50.70;;;;;;5004181;28;20436;-91
2022/06/13 12:09:21;;;;;;;2.92;0.90;;;23.60;51.00;;;;;;5008615;28;20085;-83
2022/06/13 12:11:57;;;;;;;2.05;0.50;;;23.60;51.50;;;;;;5000001;28;20053;-86
2022/06/13 12:14:25;;;;;;;3.45;1.02;;;23.50;51.40;;;;;;5016951;28;20049;-84
2022/06/13 12:17:17;;;;;;;4.40;1.15;;;23.70;51.80;;;;;;5016869;28;20080;-82
2022/06/13 12:19:58;;;;;;;0.90;0.65;;;23.80;51.50;;;;;;5012771;28;20026;-92
2022/06/13 12:22:48;;;;;;;1.37;0.53;;;23.80;51.60;;;;;;5012745;28;20083;-86
2022/06/13 12:25:29;;;;;;;1.92;0.77;;;23.90;52.00;;;;;;5005298;28;20049;-86
2022/06/13 12:28:14;;;;;;;2.47;1.00;;;23.80;50.90;;;;;;5011311;28;20060;-86
2022/06/13 12:30:50;;;;;;;2.50;0.82;;;23.80;50.80;;;;;;5000739;28;20114;-87
2022/06/13 12:34:04;;;;;;;2.17;0.82;;;23.90;50.90;;;;;;5007180;28;20464;-88
2022/06/13 12:37:47;;;;;;;2.20;0.80;;;24.00;50.90;;;;;;4956191;28;20043;-96
2022/06/13 12:44:11;;;;;;;1.38;0.60;;;24.30;49.50;;;;;;4944024;28;20035;-95
2022/06/13 12:50:33;;;;;;;2.67;0.68;;;24.60;49.00;;;;;;4962992;28;20082;-95
2022/06/13 12:57:49;;;;;;;;;;;;;;;;;;;;;
2022/06/13 13:00:20;;;;;;;1.83;1.00;;;24.90;48.00;;;;;;4984196;28;20061;-95
2022/06/13 13:03:04;;;;;;;3.03;0.75;;;25.10;48.40;;;;;;4974847;28;20034;-95
2022/06/13 13:05:56;;;;;;;3.42;0.90;;;25.20;47.30;;;;;;4955475;28;20513;-94
2022/06/13 13:08:46;;;;;;;;;;;;;;;;;;;;;
2022/06/13 13:11:39;;;;;;;2.17;0.90;;;25.20;48.00;;;;;;4875507;29;20065;-94
2022/06/13 13:14:28;;;;;;;2.65;0.70;;;25.10;47.80;;;;;;4874696;29;20045;-86
2022/06/13 13:17:13;;;;;;;40.33;21.10;;;24.90;48.00;;;;;;4861740;29;20081;-85
2022/06/13 13:20:12;;;;;;;6.43;3.20;;;24.80;48.10;;;;;;4890118;29;20091;-87
2022/06/13 13:22:54;;;;;;;4.85;1.40;;;24.70;48.10;;;;;;4920165;29;20044;-82
2022/06/13 13:25:45;;;;;;;4.55;1.30;;;25.10;48.80;;;;;;4906673;29;20094;-81
2022/06/13 13:28:36;;;;;;;2.13;0.80;;;25.50;47.30;;;;;;4899331;29;20113;-82
2022/06/13 13:31:23;;;;;;;1.98;0.85;;;25.80;46.70;;;;;;4904380;29;20037;-82
2022/06/13 13:34:38;;;;;;;6.57;0.90;;;25.60;46.30;;;;;;4924216;29;20040;-84
2022/06/13 13:37:25;;;;;;;2.47;0.77;;;25.70;45.80;;;;;;4928284;29;20047;-83
2022/06/13 13:41:31;;;;;;;;;;;;;;;;;;;;;
2022/06/13 13:43:25;;;;;;;2.10;0.88;;;27.40;45.10;;;;;;4889360;29;20045;-87
2022/06/13 13:46:15;;;;;;;3.53;0.88;;;27.60;44.10;;;;;;4917474;29;20032;-90
2022/06/13 13:49:07;;;;;;;3.05;1.00;;;28.10;43.10;;;;;;5005818;28;20130;-88
2022/06/13 13:51:47;;;;;;;3.50;0.80;;;27.60;42.70;;;;;;5007523;28;20093;-85
2022/06/13 13:54:27;;;;;;;;;;;;;;;;;;;;;
2022/06/13 13:56:57;;;;;;;2.25;0.80;;;28.70;41.80;;;;;;5012187;28;20054;-85
2022/06/13 13:59:33;;;;;;;3.35;0.88;;;28.30;42.10;;;;;;5027671;28;20030;-86
2022/06/13 14:05:45;;;;;;;1.98;0.80;;;27.30;43.20;;;;;;5026995;28;20033;-86
2022/06/13 14:08:30;;;;;;;4.18;0.80;;;26.90;43.10;;;;;;5029222;28;20072;-86
2022/06/13 14:10:59;;;;;;;3.13;1.20;;;26.60;43.80;;;;;;5037290;28;20504;-84
2022/06/13 14:13:32;;;;;;;2.30;0.73;;;26.50;44.80;;;;;;5038408;28;20030;-83
2022/06/13 14:16:09;;;;;;;2.97;0.90;;;26.70;44.80;;;;;;5005615;28;20153;-84
2022/06/13 14:19:16;;;;;;;2.25;0.90;;;26.80;44.10;;;;;;5007779;28;20042;-87
2022/06/13 14:21:44;;;;;;;1.95;0.85;;;27.50;43.30;;;;;;5023962;28;20054;-86